sensor_id;sensor_type;location;lat;lon;timestamp;pressure;altitude;pressure_sealevel;temperature;humidity
58223;BME280;44020;50.890;15.796;2023-06-14T00:02:02;97633.07;;;11.07;87.58
58223;BME280;44020;50.890;15.796;2023-06-14T00:04:43;97630.60;;;10.99;87.84
58223;BME280;44020;50.890;15.796;2023-06-14T00:08:10;97633.98;;;10.94;88.45
58223;BME280;44020;50.890;15.796;2023-06-14T00:11:21;97634.39;;;10.91;88.59
58223;BME280;44020;50.890;15.796;2023-06-14T00:13:59;97633.10;;;10.89;88.71
58223;BME280;44020;50.890;15.796;2023-06-14T00:16:32;97628.80;;;10.87;88.77
58223;BME280;44020;50.890;15.796;2023-06-14T00:19:07;97631.26;;;10.85;88.76
58223;BME280;44020;50.890;15.796;2023-06-14T00:25:30;97639.52;;;10.83;89.14
58223;BME280;44020;50.890;15.796;2023-06-14T00:41:02;97634.03;;;10.81;89.49
58223;BME280;44020;50.890;15.796;2023-06-14T00:47:17;97640.64;;;10.81;89.35
58223;BME280;44020;50.890;15.796;2023-06-14T00:49:54;97639.10;;;10.80;89.37
58223;BME280;44020;50.890;15.796;2023-06-14T00:52:45;97632.39;;;10.79;89.76
58223;BME280;44020;50.890;15.796;2023-06-14T00:55:34;97626.39;;;10.78;89.52
58223;BME280;44020;50.890;15.796;2023-06-14T00:58:16;97631.77;;;10.78;89.61
58223;BME280;44020;50.890;15.796;2023-06-14T01:24:17;97632.67;;;10.53;88.75
58223;BME280;44020;50.890;15.796;2023-06-14T01:26:49;97638.75;;;10.52;88.71
58223;BME280;44020;50.890;15.796;2023-06-14T01:29:32;97637.02;;;10.49;88.39
58223;BME280;44020;50.890;15.796;2023-06-14T01:32:29;97639.07;;;10.45;88.34
58223;BME280;44020;50.890;15.796;2023-06-14T01:35:30;97634.30;;;10.43;88.33
58223;BME280;44020;50.890;15.796;2023-06-14T01:47:38;97637.71;;;10.29;88.15
58223;BME280;44020;50.890;15.796;2023-06-14T01:51:07;97638.41;;;10.30;88.14
58223;BME280;44020;50.890;15.796;2023-06-14T01:53:19;97643.23;;;10.23;87.80
58223;BME280;44020;50.890;15.796;2023-06-14T01:58:59;97642.36;;;10.13;88.06
58223;BME280;44020;50.890;15.796;2023-06-14T02:01:27;97641.76;;;10.11;88.02
58223;BME280;44020;50.890;15.796;2023-06-14T02:04:06;97640.51;;;10.07;88.10
58223;BME280;44020;50.890;15.796;2023-06-14T02:07:15;97637.55;;;10.03;88.44
58223;BME280;44020;50.890;15.796;2023-06-14T02:09:44;97631.73;;;10.00;88.48
58223;BME280;44020;50.890;15.796;2023-06-14T02:12:35;97630.27;;;10.01;88.66
58223;BME280;44020;50.890;15.796;2023-06-14T02:21:51;97634.90;;;9.95;88.96
58223;BME280;44020;50.890;15.796;2023-06-14T02:27:58;97642.39;;;9.92;89.19
58223;BME280;44020;50.890;15.796;2023-06-14T02:30:38;97644.69;;;9.95;89.51
58223;BME280;44020;50.890;15.796;2023-06-14T02:33:36;97645.52;;;9.96;89.37
58223;BME280;44020;50.890;15.796;2023-06-14T02:36:26;97640.63;;;9.94;89.33
58223;BME280;44020;50.890;15.796;2023-06-14T02:51:19;97647.14;;;9.82;89.40
58223;BME280;44020;50.890;15.796;2023-06-14T02:57:56;97652.27;;;9.77;88.85
58223;BME280;44020;50.890;15.796;2023-06-14T03:00:24;97650.94;;;9.73;88.82
58223;BME280;44020;50.890;15.796;2023-06-14T03:03:03;97655.98;;;9.72;88.90
58223;BME280;44020;50.890;15.796;2023-06-14T03:05:47;97657.80;;;9.71;88.85
58223;BME280;44020;50.890;15.796;2023-06-14T03:08:17;97662.52;;;9.73;88.89
58223;BME280;44020;50.890;15.796;2023-06-14T03:16:44;97660.14;;;9.66;88.85
58223;BME280;44020;50.890;15.796;2023-06-14T03:22:57;97652.45;;;9.64;89.48
58223;BME280;44020;50.890;15.796;2023-06-14T03:26:06;97655.73;;;9.65;89.53
58223;BME280;44020;50.890;15.796;2023-06-14T03:34:54;97666.14;;;9.61;89.66
58223;BME280;44020;50.890;15.796;2023-06-14T03:37:55;97670.11;;;9.57;89.95
58223;BME280;44020;50.890;15.796;2023-06-14T03:40:23;97676.08;;;9.58;90.20
58223;BME280;44020;50.890;15.796;2023-06-14T03:46:26;97683.04;;;9.55;90.10
58223;BME280;44020;50.890;15.796;2023-06-14T03:53:45;97683.02;;;9.50;90.62
58223;BME280;44020;50.890;15.796;2023-06-14T03:56:36;97688.09;;;9.51;90.55
58223;BME280;44020;50.890;15.796;2023-06-14T04:02:37;97687.02;;;9.54;90.35
58223;BME280;44020;50.890;15.796;2023-06-14T04:05:29;97694.15;;;9.56;90.65
58223;BME280;44020;50.890;15.796;2023-06-14T04:08:21;97687.83;;;9.57;90.47
58223;BME280;44020;50.890;15.796;2023-06-14T04:11:30;97685.54;;;9.57;90.39
58223;BME280;44020;50.890;15.796;2023-06-14T04:14:30;97696.41;;;9.57;90.41
58223;BME280;44020;50.890;15.796;2023-06-14T04:17:24;97700.65;;;9.57;90.70
58223;BME280;44020;50.890;15.796;2023-06-14T04:24:21;97703.06;;;9.63;90.85
58223;BME280;44020;50.890;15.796;2023-06-14T04:30:24;97698.35;;;9.67;91.05
58223;BME280;44020;50.890;15.796;2023-06-14T04:36:19;97698.63;;;9.71;90.85
58223;BME280;44020;50.890;15.796;2023-06-14T04:42:27;97700.71;;;9.74;90.61
58223;BME280;44020;50.890;15.796;2023-06-14T04:52:24;97711.25;;;9.79;90.57
58223;BME280;44020;50.890;15.796;2023-06-14T04:55:05;97710.72;;;9.79;90.78
58223;BME280;44020;50.890;15.796;2023-06-14T04:57:42;97709.17;;;9.84;90.69
58223;BME280;44020;50.890;15.796;2023-06-14T05:00:32;97700.73;;;9.88;90.72
58223;BME280;44020;50.890;15.796;2023-06-14T05:03:25;97700.42;;;9.92;90.72
58223;BME280;44020;50.890;15.796;2023-06-14T05:05:52;97702.96;;;9.94;90.53
58223;BME280;44020;50.890;15.796;2023-06-14T05:11:50;97704.95;;;9.96;90.52
58223;BME280;44020;50.890;15.796;2023-06-14T05:14:45;97704.03;;;9.94;90.48
58223;BME280;44020;50.890;15.796;2023-06-14T05:17:27;97704.82;;;9.95;90.42
58223;BME280;44020;50.890;15.796;2023-06-14T05:20:07;97708.69;;;9.96;90.52
58223;BME280;44020;50.890;15.796;2023-06-14T05:23:08;97708.22;;;9.97;90.89
58223;BME280;44020;50.890;15.796;2023-06-14T05:26:00;97711.08;;;9.97;90.78
58223;BME280;44020;50.890;15.796;2023-06-14T05:29:07;97714.90;;;9.98;90.94
58223;BME280;44020;50.890;15.796;2023-06-14T05:32:00;97714.79;;;10.00;91.18
58223;BME280;44020;50.890;15.796;2023-06-14T05:34:34;97719.23;;;10.05;91.38
58223;BME280;44020;50.890;15.796;2023-06-14T05:37:11;97722.03;;;10.09;91.51
58223;BME280;44020;50.890;15.796;2023-06-14T05:39:42;97717.63;;;10.13;91.70
58223;BME280;44020;50.890;15.796;2023-06-14T05:42:13;97721.97;;;10.17;91.77
58223;BME280;44020;50.890;15.796;2023-06-14T05:44:40;97725.92;;;10.16;91.62
58223;BME280;44020;50.890;15.796;2023-06-14T05:47:08;97723.57;;;10.20;91.82
58223;BME280;44020;50.890;15.796;2023-06-14T05:49:41;97721.66;;;10.19;91.92
58223;BME280;44020;50.890;15.796;2023-06-14T05:52:09;97719.02;;;10.24;92.37
58223;BME280;44020;50.890;15.796;2023-06-14T05:54:40;97714.63;;;10.29;92.43
58223;BME280;44020;50.890;15.796;2023-06-14T05:57:11;97711.43;;;10.34;92.43
58223;BME280;44020;50.890;15.796;2023-06-14T06:00:08;97712.48;;;10.34;92.13
58223;BME280;44020;50.890;15.796;2023-06-14T06:02:44;97716.20;;;10.37;92.46
58223;BME280;44020;50.890;15.796;2023-06-14T06:05:39;97722.44;;;10.42;92.34
58223;BME280;44020;50.890;15.796;2023-06-14T06:08:10;97722.48;;;10.46;92.48
58223;BME280;44020;50.890;15.796;2023-06-14T06:10:40;97723.60;;;10.51;92.82
58223;BME280;44020;50.890;15.796;2023-06-14T06:13:28;97727.20;;;10.60;93.13
58223;BME280;44020;50.890;15.796;2023-06-14T06:15:59;97733.00;;;10.69;92.90
58223;BME280;44020;50.890;15.796;2023-06-14T06:18:35;97732.90;;;10.75;92.75
58223;BME280;44020;50.890;15.796;2023-06-14T06:21:06;97742.55;;;10.84;92.71
58223;BME280;44020;50.890;15.796;2023-06-14T06:24:09;97742.36;;;10.88;92.58
58223;BME280;44020;50.890;15.796;2023-06-14T06:26:38;97748.27;;;10.89;92.55
58223;BME280;44020;50.890;15.796;2023-06-14T06:29:07;97747.91;;;10.89;92.35
58223;BME280;44020;50.890;15.796;2023-06-14T06:31:38;97743.59;;;10.90;92.58
58223;BME280;44020;50.890;15.796;2023-06-14T06:34:05;97745.09;;;10.94;92.79
58223;BME280;44020;50.890;15.796;2023-06-14T06:36:36;97746.23;;;10.98;92.83
58223;BME280;44020;50.890;15.796;2023-06-14T06:39:04;97751.38;;;11.03;92.96
58223;BME280;44020;50.890;15.796;2023-06-14T06:45:04;97753.59;;;11.21;93.33
58223;BME280;44020;50.890;15.796;2023-06-14T06:47:32;97750.53;;;11.32;93.41
58223;BME280;44020;50.890;15.796;2023-06-14T06:49:59;97748.34;;;11.45;93.45
58223;BME280;44020;50.890;15.796;2023-06-14T06:52:26;97745.45;;;11.55;93.54
58223;BME280;44020;50.890;15.796;2023-06-14T06:58:28;97750.74;;;11.78;94.04
58223;BME280;44020;50.890;15.796;2023-06-14T07:01:04;97749.36;;;11.94;94.41
58223;BME280;44020;50.890;15.796;2023-06-14T07:03:46;97749.56;;;12.13;94.08
58223;BME280;44020;50.890;15.796;2023-06-14T07:06:14;97747.77;;;12.27;93.95
58223;BME280;44020;50.890;15.796;2023-06-14T07:08:41;97748.03;;;12.35;93.07
58223;BME280;44020;50.890;15.796;2023-06-14T07:11:08;97751.17;;;12.45;92.95
58223;BME280;44020;50.890;15.796;2023-06-14T07:13:36;97750.16;;;12.56;92.91
58223;BME280;44020;50.890;15.796;2023-06-14T07:16:04;97750.01;;;12.67;92.65
58223;BME280;44020;50.890;15.796;2023-06-14T07:18:31;97749.02;;;12.80;92.51
58223;BME280;44020;50.890;15.796;2023-06-14T07:20:58;97748.88;;;12.91;92.17
58223;BME280;44020;50.890;15.796;2023-06-14T07:23:26;97748.36;;;13.00;92.05
58223;BME280;44020;50.890;15.796;2023-06-14T07:26:24;97747.86;;;13.10;91.93
58223;BME280;44020;50.890;15.796;2023-06-14T07:28:51;97748.39;;;13.24;91.82
58223;BME280;44020;50.890;15.796;2023-06-14T07:31:19;97750.83;;;13.34;91.16
58223;BME280;44020;50.890;15.796;2023-06-14T07:33:49;97751.42;;;13.42;90.52
58223;BME280;44020;50.890;15.796;2023-06-14T07:36:16;97753.65;;;13.52;90.55
58223;BME280;44020;50.890;15.796;2023-06-14T07:38:48;97749.81;;;13.64;90.33
58223;BME280;44020;50.890;15.796;2023-06-14T07:41:29;97751.02;;;13.71;89.37
58223;BME280;44020;50.890;15.796;2023-06-14T07:44:02;97753.05;;;13.81;88.95
58223;BME280;44020;50.890;15.796;2023-06-14T07:46:29;97748.48;;;13.89;88.49
58223;BME280;44020;50.890;15.796;2023-06-14T07:49:00;97747.16;;;13.94;87.95
58223;BME280;44020;50.890;15.796;2023-06-14T07:51:36;97749.06;;;14.05;87.42
58223;BME280;44020;50.890;15.796;2023-06-14T07:54:33;97746.08;;;14.17;86.96
58223;BME280;44020;50.890;15.796;2023-06-14T07:57:02;97745.27;;;14.33;86.23
58223;BME280;44020;50.890;15.796;2023-06-14T07:59:29;97747.67;;;14.45;85.70
58223;BME280;44020;50.890;15.796;2023-06-14T08:01:57;97749.67;;;14.58;85.25
58223;BME280;44020;50.890;15.796;2023-06-14T08:07:07;97750.52;;;14.62;84.63
58223;BME280;44020;50.890;15.796;2023-06-14T08:09:35;97751.89;;;14.61;84.29
58223;BME280;44020;50.890;15.796;2023-06-14T08:12:08;97751.48;;;14.57;84.13
58223;BME280;44020;50.890;15.796;2023-06-14T08:14:39;97753.61;;;14.53;83.61
58223;BME280;44020;50.890;15.796;2023-06-14T08:17:31;97755.55;;;14.51;83.48
58223;BME280;44020;50.890;15.796;2023-06-14T08:20:01;97758.55;;;14.52;83.39
58223;BME280;44020;50.890;15.796;2023-06-14T08:22:31;97757.29;;;14.56;83.43
58223;BME280;44020;50.890;15.796;2023-06-14T08:25:01;97752.11;;;14.60;83.18
58223;BME280;44020;50.890;15.796;2023-06-14T08:27:49;97750.58;;;14.64;82.91
58223;BME280;44020;50.890;15.796;2023-06-14T08:30:37;97754.35;;;14.73;83.11
58223;BME280;44020;50.890;15.796;2023-06-14T08:35:53;97752.02;;;14.98;82.72
58223;BME280;44020;50.890;15.796;2023-06-14T08:38:41;97756.95;;;15.16;83.04
58223;BME280;44020;50.890;15.796;2023-06-14T08:41:29;97757.41;;;15.31;81.82
58223;BME280;44020;50.890;15.796;2023-06-14T08:47:07;97752.59;;;15.45;80.75
58223;BME280;44020;50.890;15.796;2023-06-14T08:49:59;97747.80;;;15.46;80.32
58223;BME280;44020;50.890;15.796;2023-06-14T08:52:51;97753.13;;;15.47;80.11
58223;BME280;44020;50.890;15.796;2023-06-14T08:58:35;97757.02;;;15.41;79.57
58223;BME280;44020;50.890;15.796;2023-06-14T09:01:26;97758.44;;;15.44;79.38
58223;BME280;44020;50.890;15.796;2023-06-14T09:04:17;97758.10;;;15.43;78.72
58223;BME280;44020;50.890;15.796;2023-06-14T09:07:25;97758.73;;;15.44;78.54
58223;BME280;44020;50.890;15.796;2023-06-14T09:10:25;97759.27;;;15.46;78.25
58223;BME280;44020;50.890;15.796;2023-06-14T09:12:53;97761.44;;;15.50;78.47
58223;BME280;44020;50.890;15.796;2023-06-14T09:15:20;97762.03;;;15.55;77.97
58223;BME280;44020;50.890;15.796;2023-06-14T09:17:48;97762.77;;;15.59;77.36
58223;BME280;44020;50.890;15.796;2023-06-14T09:20:15;97766.54;;;15.63;76.87
58223;BME280;44020;50.890;15.796;2023-06-14T09:22:49;97765.55;;;15.66;76.68
58223;BME280;44020;50.890;15.796;2023-06-14T09:25:18;97769.01;;;15.67;76.47
58223;BME280;44020;50.890;15.796;2023-06-14T09:28:09;97775.05;;;15.70;76.51
58223;BME280;44020;50.890;15.796;2023-06-14T09:30:40;97774.55;;;15.74;76.49
58223;BME280;44020;50.890;15.796;2023-06-14T09:33:36;97773.77;;;15.76;76.08
58223;BME280;44020;50.890;15.796;2023-06-14T09:36:12;97769.44;;;15.81;76.14
58223;BME280;44020;50.890;15.796;2023-06-14T09:38:40;97769.73;;;15.88;76.05
58223;BME280;44020;50.890;15.796;2023-06-14T09:41:08;97767.05;;;15.93;75.99
58223;BME280;44020;50.890;15.796;2023-06-14T09:43:38;97765.43;;;15.99;75.76
58223;BME280;44020;50.890;15.796;2023-06-14T09:46:06;97764.08;;;16.06;75.78
58223;BME280;44020;50.890;15.796;2023-06-14T09:49:27;97766.98;;;16.12;75.33
58223;BME280;44020;50.890;15.796;2023-06-14T09:51:55;97768.17;;;16.14;74.86
58223;BME280;44020;50.890;15.796;2023-06-14T09:54:26;97765.98;;;16.17;74.88
58223;BME280;44020;50.890;15.796;2023-06-14T09:57:26;97771.61;;;16.20;74.95
58223;BME280;44020;50.890;15.796;2023-06-14T10:00:33;97769.86;;;16.23;75.17
58223;BME280;44020;50.890;15.796;2023-06-14T10:03:16;97767.73;;;16.23;74.52
58223;BME280;44020;50.890;15.796;2023-06-14T10:05:50;97768.05;;;16.23;74.40
58223;BME280;44020;50.890;15.796;2023-06-14T10:08:29;97769.52;;;16.27;74.19
58223;BME280;44020;50.890;15.796;2023-06-14T10:11:00;97768.65;;;16.31;74.06
58223;BME280;44020;50.890;15.796;2023-06-14T10:19:22;97772.51;;;16.43;73.15
58223;BME280;44020;50.890;15.796;2023-06-14T10:24:33;97766.13;;;16.54;72.75
58223;BME280;44020;50.890;15.796;2023-06-14T10:27:08;97765.27;;;16.59;72.39
58223;BME280;44020;50.890;15.796;2023-06-14T10:32:21;97757.98;;;16.64;71.44
58223;BME280;44020;50.890;15.796;2023-06-14T10:34:57;97760.06;;;16.69;71.77
58223;BME280;44020;50.890;15.796;2023-06-14T10:37:30;97763.09;;;16.77;71.81
58223;BME280;44020;50.890;15.796;2023-06-14T10:39:57;97762.39;;;16.82;71.61
58223;BME280;44020;50.890;15.796;2023-06-14T10:42:32;97761.86;;;16.86;71.18
58223;BME280;44020;50.890;15.796;2023-06-14T10:45:02;97763.95;;;16.89;70.91
58223;BME280;44020;50.890;15.796;2023-06-14T10:47:38;97761.46;;;16.90;70.94
58223;BME280;44020;50.890;15.796;2023-06-14T10:50:10;97763.20;;;16.93;71.08
58223;BME280;44020;50.890;15.796;2023-06-14T10:52:49;97762.72;;;16.96;70.97
58223;BME280;44020;50.890;15.796;2023-06-14T10:55:17;97757.84;;;17.02;70.69
58223;BME280;44020;50.890;15.796;2023-06-14T10:57:53;97755.40;;;17.09;69.97
58223;BME280;44020;50.890;15.796;2023-06-14T11:00:27;97750.13;;;17.13;69.82
58223;BME280;44020;50.890;15.796;2023-06-14T11:06:01;97751.69;;;17.49;69.16
58223;BME280;44020;50.890;15.796;2023-06-14T11:09:19;97748.07;;;17.58;68.18
58223;BME280;44020;50.890;15.796;2023-06-14T11:11:56;97744.42;;;17.71;67.36
58223;BME280;44020;50.890;15.796;2023-06-14T11:14:24;97737.17;;;17.85;67.39
58223;BME280;44020;50.890;15.796;2023-06-14T11:16:52;97736.79;;;18.01;66.39
58223;BME280;44020;50.890;15.796;2023-06-14T11:19:19;97732.16;;;18.14;65.98
58223;BME280;44020;50.890;15.796;2023-06-14T11:22:15;97735.51;;;18.18;65.53
58223;BME280;44020;50.890;15.796;2023-06-14T11:24:43;97745.59;;;18.09;64.75
58223;BME280;44020;50.890;15.796;2023-06-14T11:27:11;97741.11;;;17.93;63.56
58223;BME280;44020;50.890;15.796;2023-06-14T11:32:47;97748.04;;;17.62;63.69
58223;BME280;44020;50.890;15.796;2023-06-14T11:35:39;97743.51;;;17.50;64.45
58223;BME280;44020;50.890;15.796;2023-06-14T11:38:29;97744.46;;;17.53;65.25
58223;BME280;44020;50.890;15.796;2023-06-14T11:41:05;97745.79;;;17.76;65.69
58223;BME280;44020;50.890;15.796;2023-06-14T11:43:33;97739.60;;;17.93;65.18
58223;BME280;44020;50.890;15.796;2023-06-14T11:46:02;97733.29;;;18.06;65.21
58223;BME280;44020;50.890;15.796;2023-06-14T11:48:42;97725.95;;;18.24;65.17
58223;BME280;44020;50.890;15.796;2023-06-14T11:54:12;97717.70;;;18.70;64.84
58223;BME280;44020;50.890;15.796;2023-06-14T11:56:43;97711.11;;;18.79;63.80
58223;BME280;44020;50.890;15.796;2023-06-14T11:59:13;97711.33;;;18.66;62.48
58223;BME280;44020;50.890;15.796;2023-06-14T12:01:42;97712.25;;;18.58;62.60
58223;BME280;44020;50.890;15.796;2023-06-14T12:04:30;97711.33;;;18.56;62.45
58223;BME280;44020;50.890;15.796;2023-06-14T12:07:09;97708.27;;;18.54;62.21
58223;BME280;44020;50.890;15.796;2023-06-14T12:09:38;97706.33;;;18.50;62.00
58223;BME280;44020;50.890;15.796;2023-06-14T12:12:07;97704.31;;;18.47;61.73
58223;BME280;44020;50.890;15.796;2023-06-14T12:14:37;97701.89;;;18.43;61.85
58223;BME280;44020;50.890;15.796;2023-06-14T12:17:26;97698.03;;;18.41;61.55
58223;BME280;44020;50.890;15.796;2023-06-14T12:19:55;97692.61;;;18.52;61.63
58223;BME280;44020;50.890;15.796;2023-06-14T12:22:22;97691.31;;;18.75;61.74
58223;BME280;44020;50.890;15.796;2023-06-14T12:24:51;97689.63;;;18.97;61.13
58223;BME280;44020;50.890;15.796;2023-06-14T12:27:22;97685.77;;;19.11;60.99
58223;BME280;44020;50.890;15.796;2023-06-14T12:30:04;97679.98;;;19.35;60.92
58223;BME280;44020;50.890;15.796;2023-06-14T12:32:37;97684.52;;;19.60;59.81
58223;BME280;44020;50.890;15.796;2023-06-14T12:35:07;97681.19;;;19.69;58.77
58223;BME280;44020;50.890;15.796;2023-06-14T12:37:34;97677.30;;;19.69;58.94
58223;BME280;44020;50.890;15.796;2023-06-14T12:40:01;97676.12;;;19.65;58.98
58223;BME280;44020;50.890;15.796;2023-06-14T12:42:38;97677.61;;;19.56;58.12
58223;BME280;44020;50.890;15.796;2023-06-14T12:45:18;97674.23;;;19.49;58.51
58223;BME280;44020;50.890;15.796;2023-06-14T12:47:55;97680.74;;;19.38;58.26
58223;BME280;44020;50.890;15.796;2023-06-14T12:50:42;97679.86;;;19.25;58.27
58223;BME280;44020;50.890;15.796;2023-06-14T12:53:10;97681.71;;;19.16;58.28
58223;BME280;44020;50.890;15.796;2023-06-14T12:58:39;97689.38;;;19.00;57.74
58223;BME280;44020;50.890;15.796;2023-06-14T13:01:09;97687.23;;;18.89;57.74
58223;BME280;44020;50.890;15.796;2023-06-14T13:03:39;97691.10;;;18.81;58.00
58223;BME280;44020;50.890;15.796;2023-06-14T13:06:21;97687.91;;;18.73;58.30
58223;BME280;44020;50.890;15.796;2023-06-14T13:09:09;97685.88;;;18.67;58.79
58223;BME280;44020;50.890;15.796;2023-06-14T13:11:37;97689.98;;;18.59;59.06
58223;BME280;44020;50.890;15.796;2023-06-14T13:14:07;97691.48;;;18.53;59.00
58223;BME280;44020;50.890;15.796;2023-06-14T13:16:35;97701.16;;;18.49;59.37
58223;BME280;44020;50.890;15.796;2023-06-14T13:19:03;97709.98;;;18.42;60.00
58223;BME280;44020;50.890;15.796;2023-06-14T13:21:34;97716.15;;;18.30;60.54
58223;BME280;44020;50.890;15.796;2023-06-14T13:24:01;97725.45;;;18.12;61.52
58223;BME280;44020;50.890;15.796;2023-06-14T13:26:29;97736.35;;;17.90;62.84
58223;BME280;44020;50.890;15.796;2023-06-14T13:28:57;97734.55;;;17.68;64.20
58223;BME280;44020;50.890;15.796;2023-06-14T13:31:26;97728.73;;;17.50;65.26
58223;BME280;44020;50.890;15.796;2023-06-14T13:33:57;97728.34;;;17.40;66.28
58223;BME280;44020;50.890;15.796;2023-06-14T13:36:24;97724.48;;;17.33;66.86
58223;BME280;44020;50.890;15.796;2023-06-14T13:39:07;97719.66;;;17.27;67.89
58223;BME280;44020;50.890;15.796;2023-06-14T13:41:55;97715.15;;;17.24;69.01
58223;BME280;44020;50.890;15.796;2023-06-14T13:44:22;97714.27;;;17.20;70.22
58223;BME280;44020;50.890;15.796;2023-06-14T13:46:51;97711.66;;;17.19;71.33
58223;BME280;44020;50.890;15.796;2023-06-14T13:49:22;97710.21;;;17.19;72.08
58223;BME280;44020;50.890;15.796;2023-06-14T13:51:52;97709.95;;;17.20;72.48
58223;BME280;44020;50.890;15.796;2023-06-14T13:54:20;97708.85;;;17.20;73.30
58223;BME280;44020;50.890;15.796;2023-06-14T13:56:51;97710.77;;;17.22;74.49
58223;BME280;44020;50.890;15.796;2023-06-14T13:59:22;97711.43;;;17.29;75.41
58223;BME280;44020;50.890;15.796;2023-06-14T14:02:33;97712.21;;;17.41;75.87
58223;BME280;44020;50.890;15.796;2023-06-14T14:05:17;97716.52;;;17.56;75.66
58223;BME280;44020;50.890;15.796;2023-06-14T14:08:20;97718.53;;;17.70;75.30
58223;BME280;44020;50.890;15.796;2023-06-14T14:10:52;97723.76;;;17.86;75.58
58223;BME280;44020;50.890;15.796;2023-06-14T14:13:44;97719.38;;;18.01;75.17
58223;BME280;44020;50.890;15.796;2023-06-14T14:16:18;97712.64;;;18.20;75.45
58223;BME280;44020;50.890;15.796;2023-06-14T14:18:48;97706.46;;;18.47;74.53
58223;BME280;44020;50.890;15.796;2023-06-14T14:21:16;97706.68;;;18.76;74.16
58223;BME280;44020;50.890;15.796;2023-06-14T14:23:44;97704.33;;;19.06;73.43
58223;BME280;44020;50.890;15.796;2023-06-14T14:26:49;97707.20;;;19.20;72.47
58223;BME280;44020;50.890;15.796;2023-06-14T14:29:31;97710.20;;;19.15;71.75
58223;BME280;44020;50.890;15.796;2023-06-14T14:32:41;97711.58;;;19.04;71.49
58223;BME280;44020;50.890;15.796;2023-06-14T14:35:29;97709.55;;;18.91;71.66
58223;BME280;44020;50.890;15.796;2023-06-14T14:37:58;97712.59;;;18.73;71.49
58223;BME280;44020;50.890;15.796;2023-06-14T14:40:59;97720.50;;;18.58;71.90
58223;BME280;44020;50.890;15.796;2023-06-14T14:43:27;97720.55;;;18.44;72.45
58223;BME280;44020;50.890;15.796;2023-06-14T14:46:01;97721.77;;;18.33;72.22
58223;BME280;44020;50.890;15.796;2023-06-14T14:48:52;97718.18;;;18.15;71.92
58223;BME280;44020;50.890;15.796;2023-06-14T14:51:42;97717.94;;;18.01;71.82
58223;BME280;44020;50.890;15.796;2023-06-14T14:54:19;97719.73;;;17.89;72.09
58223;BME280;44020;50.890;15.796;2023-06-14T14:56:57;97721.10;;;17.77;72.32
58223;BME280;44020;50.890;15.796;2023-06-14T14:59:24;97722.21;;;17.74;72.72
58223;BME280;44020;50.890;15.796;2023-06-14T15:01:52;97718.52;;;17.72;73.01
58223;BME280;44020;50.890;15.796;2023-06-14T15:04:19;97716.55;;;17.70;73.23
58223;BME280;44020;50.890;15.796;2023-06-14T15:07:07;97716.61;;;17.67;73.38
58223;BME280;44020;50.890;15.796;2023-06-14T15:09:55;97717.20;;;17.62;73.46
58223;BME280;44020;50.890;15.796;2023-06-14T15:12:28;97716.95;;;17.58;73.31
58223;BME280;44020;50.890;15.796;2023-06-14T15:14:55;97711.48;;;17.56;72.98
58223;BME280;44020;50.890;15.796;2023-06-14T15:17:29;97717.71;;;17.53;73.33
58223;BME280;44020;50.890;15.796;2023-06-14T15:20:02;97721.91;;;17.52;73.94
58223;BME280;44020;50.890;15.796;2023-06-14T15:22:30;97723.45;;;17.49;74.22
58223;BME280;44020;50.890;15.796;2023-06-14T15:25:00;97728.64;;;17.47;74.67
58223;BME280;44020;50.890;15.796;2023-06-14T15:27:51;97731.77;;;17.47;74.94
58223;BME280;44020;50.890;15.796;2023-06-14T15:30:52;97731.91;;;17.45;75.01
58223;BME280;44020;50.890;15.796;2023-06-14T15:36:28;97720.65;;;17.44;75.59
58223;BME280;44020;50.890;15.796;2023-06-14T15:39:07;97721.30;;;17.43;75.64
58223;BME280;44020;50.890;15.796;2023-06-14T15:41:35;97724.19;;;17.41;75.42
58223;BME280;44020;50.890;15.796;2023-06-14T15:47:22;97729.56;;;17.38;75.70
58223;BME280;44020;50.890;15.796;2023-06-14T15:49:55;97725.58;;;17.37;75.15
58223;BME280;44020;50.890;15.796;2023-06-14T15:52:32;97727.70;;;17.37;74.97
58223;BME280;44020;50.890;15.796;2023-06-14T15:55:34;97726.48;;;17.37;75.30
58223;BME280;44020;50.890;15.796;2023-06-14T15:58:17;97727.61;;;17.36;75.44
58223;BME280;44020;50.890;15.796;2023-06-14T16:04:23;97724.30;;;17.31;76.28
58223;BME280;44020;50.890;15.796;2023-06-14T16:07:11;97717.23;;;17.28;76.73
58223;BME280;44020;50.890;15.796;2023-06-14T16:12:58;97712.45;;;17.25;77.57
58223;BME280;44020;50.890;15.796;2023-06-14T16:15:53;97714.01;;;17.26;77.98
58223;BME280;44020;50.890;15.796;2023-06-14T16:18:23;97715.11;;;17.26;77.63
58223;BME280;44020;50.890;15.796;2023-06-14T16:21:11;97716.42;;;17.27;77.83
58223;BME280;44020;50.890;15.796;2023-06-14T16:23:53;97715.77;;;17.31;78.23
58223;BME280;44020;50.890;15.796;2023-06-14T16:26:21;97721.19;;;17.34;78.22
58223;BME280;44020;50.890;15.796;2023-06-14T16:29:32;97727.90;;;17.35;78.16
58223;BME280;44020;50.890;15.796;2023-06-14T16:32:04;97730.65;;;17.36;78.29
58223;BME280;44020;50.890;15.796;2023-06-14T16:35:05;97734.11;;;17.38;78.40
58223;BME280;44020;50.890;15.796;2023-06-14T16:47:56;97742.35;;;17.28;78.50
58223;BME280;44020;50.890;15.796;2023-06-14T16:50:30;97744.68;;;17.25;78.46
58223;BME280;44020;50.890;15.796;2023-06-14T16:53:17;97744.34;;;17.23;79.12
58223;BME280;44020;50.890;15.796;2023-06-14T16:55:48;97745.67;;;17.20;79.16
58223;BME280;44020;50.890;15.796;2023-06-14T16:58:28;97750.86;;;17.18;79.14
58223;BME280;44020;50.890;15.796;2023-06-14T17:01:05;97748.53;;;17.15;79.17
58223;BME280;44020;50.890;15.796;2023-06-14T17:03:35;97750.41;;;17.14;79.52
58223;BME280;44020;50.890;15.796;2023-06-14T17:06:02;97748.96;;;17.12;79.61
58223;BME280;44020;50.890;15.796;2023-06-14T17:08:30;97749.14;;;17.12;80.03